Cooper, Iowa
Current Conditions -  °F | °C
As of 9:55 AM on Saturday 25 Oct 2014 (Local Time) from KPRO Reporting Station
Clear Clear  
Wind Chill: 57°   Ceiling: Unl
Heat Index: 57°   Visibility: 10mi
Dew Point: 46°   Wind: 6mph
Humidity: 69%   Direction: 350°N
Pressure: 30.11"   Gusts: NA
Location:  41.92°N, 94.35°W
Report Text: KPRO 251455Z AUTO 35005KT 10SM CLR 14/08 A3011 RMK AO2 T01370080
Loading
Personal Weather Stations






























Interactive Weather Map
Tropical Storm Tracking
New forecast layout! Learn more

10-Day Weather Forecast

Advertisements
Track Severe Weather on mobile